Jacksonville, Georgia
Current Conditions -  °F | °C
As of 3:55 AM on Sunday 23 Nov 2014 (Local Time) from KFZG Reporting Station
Moderate Rain Moderate Rain  
Wind Chill: 16°   Ceiling: 600
Heat Index: 16°   Visibility: 4mi
Dew Point: 14°   Wind: 5mph
Humidity: 91%   Direction: 70°ENE
Pressure: 30.09"   Gusts: NA
Location:  31.81°N, 82.98°W
Report Text: KFZG 230855Z AUTO 07004KT 4SM RA BKN006 OVC012 16/14 A3009 RMK AO2 T01550140
Loading
Personal Weather Stations






























Interactive Weather Map New forecast layout! Learn more

10-Day Weather Forecast

Advertisements
Track Severe Weather on mobile